sensor_id;sensor_type;location;lat;lon;timestamp;P1;durP1;ratioP1;P2;durP2;ratioP2
53391;SDS011;41667;51.922;8.850;2022-09-17T00:02:07;3.58;;;1.33;;
53391;SDS011;41667;51.922;8.850;2022-09-17T00:04:32;5.47;;;1.27;;
53391;SDS011;41667;51.922;8.850;2022-09-17T00:06:58;7.05;;;1.30;;
53391;SDS011;41667;51.922;8.850;2022-09-17T00:09:23;1.38;;;0.73;;
53391;SDS011;41667;51.922;8.850;2022-09-17T00:11:48;5.07;;;1.10;;
53391;SDS011;41667;51.922;8.850;2022-09-17T00:14:15;3.25;;;1.58;;
53391;SDS011;41667;51.922;8.850;2022-09-17T00:16:42;3.53;;;1.60;;
53391;SDS011;41667;51.922;8.850;2022-09-17T00:19:11;7.18;;;1.80;;
53391;SDS011;41667;51.922;8.850;2022-09-17T00:21:37;6.30;;;1.35;;
53391;SDS011;41667;51.922;8.850;2022-09-17T00:24:03;14.35;;;1.50;;
53391;SDS011;41667;51.922;8.850;2022-09-17T00:26:29;3.13;;;0.93;;
53391;SDS011;41667;51.922;8.850;2022-09-17T00:28:55;5.03;;;1.10;;
53391;SDS011;41667;51.922;8.850;2022-09-17T00:31:21;5.82;;;1.25;;
53391;SDS011;41667;51.922;8.850;2022-09-17T00:33:46;2.50;;;0.85;;
53391;SDS011;41667;51.922;8.850;2022-09-17T00:36:11;4.30;;;1.17;;
53391;SDS011;41667;51.922;8.850;2022-09-17T00:38:37;6.95;;;1.20;;
53391;SDS011;41667;51.922;8.850;2022-09-17T00:41:02;4.38;;;1.52;;
53391;SDS011;41667;51.922;8.850;2022-09-17T00:43:32;8.82;;;2.00;;
53391;SDS011;41667;51.922;8.850;2022-09-17T00:45:57;3.20;;;1.13;;
53391;SDS011;41667;51.922;8.850;2022-09-17T00:48:23;7.63;;;2.28;;
53391;SDS011;41667;51.922;8.850;2022-09-17T00:50:48;2.17;;;0.77;;
53391;SDS011;41667;51.922;8.850;2022-09-17T00:53:13;4.27;;;1.53;;
53391;SDS011;41667;51.922;8.850;2022-09-17T00:55:41;6.07;;;1.60;;
53391;SDS011;41667;51.922;8.850;2022-09-17T00:58:08;2.85;;;1.05;;
53391;SDS011;41667;51.922;8.850;2022-09-17T01:00:34;1.30;;;1.20;;
53391;SDS011;41667;51.922;8.850;2022-09-17T01:02:59;9.23;;;2.05;;
53391;SDS011;41667;51.922;8.850;2022-09-17T01:05:27;1.25;;;1.15;;
53391;SDS011;41667;51.922;8.850;2022-09-17T01:10:32;4.03;;;1.10;;
53391;SDS011;41667;51.922;8.850;2022-09-17T01:13:15;3.90;;;1.90;;
53391;SDS011;41667;51.922;8.850;2022-09-17T01:15:51;6.15;;;1.50;;
53391;SDS011;41667;51.922;8.850;2022-09-17T01:18:30;9.02;;;1.77;;
53391;SDS011;41667;51.922;8.850;2022-09-17T01:21:06;6.45;;;2.30;;
53391;SDS011;41667;51.922;8.850;2022-09-17T01:29:00;5.03;;;1.40;;
53391;SDS011;41667;51.922;8.850;2022-09-17T01:31:36;6.20;;;1.70;;
53391;SDS011;41667;51.922;8.850;2022-09-17T01:41:42;10.88;;;1.90;;
53391;SDS011;41667;51.922;8.850;2022-09-17T01:44:18;7.47;;;2.47;;
53391;SDS011;41667;51.922;8.850;2022-09-17T01:47:03;7.35;;;1.77;;
53391;SDS011;41667;51.922;8.850;2022-09-17T01:49:30;7.47;;;1.73;;
53391;SDS011;41667;51.922;8.850;2022-09-17T01:51:56;4.45;;;1.60;;
53391;SDS011;41667;51.922;8.850;2022-09-17T01:54:25;6.40;;;2.00;;
53391;SDS011;41667;51.922;8.850;2022-09-17T01:56:57;4.28;;;1.85;;
53391;SDS011;41667;51.922;8.850;2022-09-17T01:59:29;6.43;;;1.67;;
53391;SDS011;41667;51.922;8.850;2022-09-17T02:01:58;6.70;;;1.60;;
53391;SDS011;41667;51.922;8.850;2022-09-17T02:04:28;8.40;;;1.73;;
53391;SDS011;41667;51.922;8.850;2022-09-17T02:06:57;7.43;;;1.80;;
53391;SDS011;41667;51.922;8.850;2022-09-17T02:09:25;4.13;;;1.45;;
53391;SDS011;41667;51.922;8.850;2022-09-17T02:11:52;6.65;;;2.42;;
53391;SDS011;41667;51.922;8.850;2022-09-17T02:14:36;12.52;;;2.38;;
53391;SDS011;41667;51.922;8.850;2022-09-17T02:17:11;9.35;;;1.77;;
53391;SDS011;41667;51.922;8.850;2022-09-17T02:19:37;9.63;;;2.13;;
53391;SDS011;41667;51.922;8.850;2022-09-17T02:22:15;9.70;;;2.50;;
53391;SDS011;41667;51.922;8.850;2022-09-17T02:29:47;8.07;;;2.53;;
53391;SDS011;41667;51.922;8.850;2022-09-17T02:32:12;10.70;;;2.53;;
53391;SDS011;41667;51.922;8.850;2022-09-17T02:34:38;9.20;;;1.93;;
53391;SDS011;41667;51.922;8.850;2022-09-17T02:37:03;7.05;;;2.17;;
53391;SDS011;41667;51.922;8.850;2022-09-17T02:39:29;14.00;;;2.70;;
53391;SDS011;41667;51.922;8.850;2022-09-17T02:47:03;7.77;;;1.97;;
53391;SDS011;41667;51.922;8.850;2022-09-17T02:57:29;16.40;;;2.10;;
53391;SDS011;41667;51.922;8.850;2022-09-17T03:00:03;10.90;;;3.08;;
53391;SDS011;41667;51.922;8.850;2022-09-17T03:02:30;5.20;;;2.38;;
53391;SDS011;41667;51.922;8.850;2022-09-17T03:04:56;16.38;;;2.45;;
53391;SDS011;41667;51.922;8.850;2022-09-17T03:07:21;14.52;;;2.38;;
53391;SDS011;41667;51.922;8.850;2022-09-17T03:09:47;9.82;;;2.00;;
53391;SDS011;41667;51.922;8.850;2022-09-17T03:12:12;13.27;;;4.73;;
53391;SDS011;41667;51.922;8.850;2022-09-17T03:14:37;10.02;;;2.40;;
53391;SDS011;41667;51.922;8.850;2022-09-17T03:17:03;10.98;;;3.38;;
53391;SDS011;41667;51.922;8.850;2022-09-17T03:19:28;12.68;;;2.30;;
53391;SDS011;41667;51.922;8.850;2022-09-17T03:21:53;11.53;;;2.40;;
53391;SDS011;41667;51.922;8.850;2022-09-17T03:24:18;8.88;;;2.05;;
53391;SDS011;41667;51.922;8.850;2022-09-17T03:26:43;5.75;;;2.63;;
53391;SDS011;41667;51.922;8.850;2022-09-17T03:29:11;12.60;;;2.17;;
53391;SDS011;41667;51.922;8.850;2022-09-17T03:31:36;3.78;;;2.03;;
53391;SDS011;41667;51.922;8.850;2022-09-17T03:34:01;7.10;;;2.00;;
53391;SDS011;41667;51.922;8.850;2022-09-17T03:36:28;8.35;;;2.20;;
53391;SDS011;41667;51.922;8.850;2022-09-17T03:38:56;16.33;;;4.35;;
53391;SDS011;41667;51.922;8.850;2022-09-17T03:41:22;11.93;;;2.00;;
53391;SDS011;41667;51.922;8.850;2022-09-17T03:43:47;13.45;;;3.03;;
53391;SDS011;41667;51.922;8.850;2022-09-17T03:46:12;14.77;;;2.42;;
53391;SDS011;41667;51.922;8.850;2022-09-17T03:48:37;6.68;;;2.95;;
53391;SDS011;41667;51.922;8.850;2022-09-17T03:51:03;7.95;;;2.03;;
53391;SDS011;41667;51.922;8.850;2022-09-17T03:53:29;10.45;;;2.00;;
53391;SDS011;41667;51.922;8.850;2022-09-17T03:55:56;13.90;;;2.13;;
53391;SDS011;41667;51.922;8.850;2022-09-17T03:58:21;5.95;;;2.15;;
53391;SDS011;41667;51.922;8.850;2022-09-17T04:00:47;6.78;;;2.40;;
53391;SDS011;41667;51.922;8.850;2022-09-17T04:03:17;9.50;;;2.92;;
53391;SDS011;41667;51.922;8.850;2022-09-17T04:05:42;8.43;;;1.75;;
53391;SDS011;41667;51.922;8.850;2022-09-17T04:08:07;5.72;;;1.83;;
53391;SDS011;41667;51.922;8.850;2022-09-17T04:10:32;12.68;;;2.67;;
53391;SDS011;41667;51.922;8.850;2022-09-17T04:12:57;13.93;;;2.15;;
53391;SDS011;41667;51.922;8.850;2022-09-17T04:15:22;10.67;;;2.13;;
53391;SDS011;41667;51.922;8.850;2022-09-17T04:17:47;10.38;;;2.00;;
53391;SDS011;41667;51.922;8.850;2022-09-17T04:20:13;14.55;;;2.67;;
53391;SDS011;41667;51.922;8.850;2022-09-17T04:22:38;10.53;;;2.30;;
53391;SDS011;41667;51.922;8.850;2022-09-17T04:25:03;13.73;;;2.60;;
53391;SDS011;41667;51.922;8.850;2022-09-17T04:27:28;16.35;;;1.83;;
53391;SDS011;41667;51.922;8.850;2022-09-17T04:29:53;13.50;;;2.00;;
53391;SDS011;41667;51.922;8.850;2022-09-17T04:32:18;6.32;;;2.45;;
53391;SDS011;41667;51.922;8.850;2022-09-17T04:34:44;8.02;;;2.65;;
53391;SDS011;41667;51.922;8.850;2022-09-17T04:37:09;9.93;;;1.85;;
53391;SDS011;41667;51.922;8.850;2022-09-17T04:39:34;13.63;;;2.00;;
53391;SDS011;41667;51.922;8.850;2022-09-17T04:42:00;9.75;;;1.95;;
53391;SDS011;41667;51.922;8.850;2022-09-17T04:44:25;9.55;;;1.75;;
53391;SDS011;41667;51.922;8.850;2022-09-17T04:46:50;16.27;;;3.30;;
53391;SDS011;41667;51.922;8.850;2022-09-17T04:49:15;8.03;;;1.50;;
53391;SDS011;41667;51.922;8.850;2022-09-17T04:51:40;9.13;;;2.47;;
53391;SDS011;41667;51.922;8.850;2022-09-17T04:54:05;11.10;;;2.17;;
53391;SDS011;41667;51.922;8.850;2022-09-17T04:56:31;8.05;;;2.33;;
53391;SDS011;41667;51.922;8.850;2022-09-17T04:58:56;9.02;;;2.00;;
53391;SDS011;41667;51.922;8.850;2022-09-17T05:01:21;6.37;;;2.57;;
53391;SDS011;41667;51.922;8.850;2022-09-17T05:03:46;4.88;;;1.50;;
53391;SDS011;41667;51.922;8.850;2022-09-17T05:06:11;10.17;;;3.57;;
53391;SDS011;41667;51.922;8.850;2022-09-17T05:08:36;7.70;;;2.00;;
53391;SDS011;41667;51.922;8.850;2022-09-17T05:11:02;9.77;;;2.63;;
53391;SDS011;41667;51.922;8.850;2022-09-17T05:13:27;7.20;;;1.77;;
53391;SDS011;41667;51.922;8.850;2022-09-17T05:15:53;14.52;;;2.17;;
53391;SDS011;41667;51.922;8.850;2022-09-17T05:18:18;11.35;;;2.30;;
53391;SDS011;41667;51.922;8.850;2022-09-17T05:20:43;16.58;;;2.08;;
53391;SDS011;41667;51.922;8.850;2022-09-17T05:23:09;9.00;;;2.20;;
53391;SDS011;41667;51.922;8.850;2022-09-17T05:25:34;11.70;;;2.08;;
53391;SDS011;41667;51.922;8.850;2022-09-17T05:27:59;8.18;;;2.13;;
53391;SDS011;41667;51.922;8.850;2022-09-17T05:30:25;5.75;;;1.75;;
53391;SDS011;41667;51.922;8.850;2022-09-17T05:32:57;7.53;;;2.05;;
53391;SDS011;41667;51.922;8.850;2022-09-17T05:37:47;3.28;;;1.48;;
53391;SDS011;41667;51.922;8.850;2022-09-17T05:40:12;8.90;;;1.92;;
53391;SDS011;41667;51.922;8.850;2022-09-17T05:42:38;3.38;;;1.38;;
53391;SDS011;41667;51.922;8.850;2022-09-17T05:45:03;5.85;;;2.40;;
53391;SDS011;41667;51.922;8.850;2022-09-17T05:47:29;5.53;;;1.55;;
53391;SDS011;41667;51.922;8.850;2022-09-17T05:49:54;19.55;;;2.33;;
53391;SDS011;41667;51.922;8.850;2022-09-17T05:52:20;17.08;;;2.08;;
53391;SDS011;41667;51.922;8.850;2022-09-17T05:54:45;10.48;;;2.25;;
53391;SDS011;41667;51.922;8.850;2022-09-17T05:57:11;3.60;;;1.80;;
53391;SDS011;41667;51.922;8.850;2022-09-17T05:59:36;27.80;;;2.73;;
53391;SDS011;41667;51.922;8.850;2022-09-17T06:02:01;15.63;;;2.47;;
53391;SDS011;41667;51.922;8.850;2022-09-17T06:04:26;10.67;;;2.03;;
53391;SDS011;41667;51.922;8.850;2022-09-17T06:06:51;10.45;;;2.15;;
53391;SDS011;41667;51.922;8.850;2022-09-17T06:09:16;8.60;;;2.15;;
53391;SDS011;41667;51.922;8.850;2022-09-17T06:11:41;3.28;;;1.42;;
53391;SDS011;41667;51.922;8.850;2022-09-17T06:14:07;11.18;;;1.90;;
53391;SDS011;41667;51.922;8.850;2022-09-17T06:16:32;9.82;;;1.83;;
53391;SDS011;41667;51.922;8.850;2022-09-17T06:18:57;7.00;;;1.50;;
53391;SDS011;41667;51.922;8.850;2022-09-17T06:21:23;8.33;;;1.80;;
53391;SDS011;41667;51.922;8.850;2022-09-17T06:23:51;6.87;;;1.63;;
53391;SDS011;41667;51.922;8.850;2022-09-17T06:26:16;10.30;;;2.40;;
53391;SDS011;41667;51.922;8.850;2022-09-17T06:28:41;5.97;;;1.45;;
53391;SDS011;41667;51.922;8.850;2022-09-17T06:31:07;9.20;;;2.03;;
53391;SDS011;41667;51.922;8.850;2022-09-17T06:33:32;4.95;;;2.72;;
53391;SDS011;41667;51.922;8.850;2022-09-17T06:35:58;7.72;;;2.05;;
53391;SDS011;41667;51.922;8.850;2022-09-17T06:38:26;19.88;;;2.42;;
53391;SDS011;41667;51.922;8.850;2022-09-17T06:40:51;7.85;;;1.63;;
53391;SDS011;41667;51.922;8.850;2022-09-17T06:43:16;7.43;;;2.40;;
53391;SDS011;41667;51.922;8.850;2022-09-17T06:45:41;4.22;;;1.80;;
53391;SDS011;41667;51.922;8.850;2022-09-17T06:48:07;8.40;;;2.22;;
53391;SDS011;41667;51.922;8.850;2022-09-17T06:50:32;10.90;;;1.90;;
53391;SDS011;41667;51.922;8.850;2022-09-17T06:52:57;7.30;;;1.90;;
53391;SDS011;41667;51.922;8.850;2022-09-17T06:55:23;7.50;;;2.42;;
53391;SDS011;41667;51.922;8.850;2022-09-17T06:57:48;12.43;;;1.77;;
53391;SDS011;41667;51.922;8.850;2022-09-17T07:00:13;9.60;;;1.98;;
53391;SDS011;41667;51.922;8.850;2022-09-17T07:02:39;8.00;;;1.75;;
53391;SDS011;41667;51.922;8.850;2022-09-17T07:05:04;4.88;;;1.42;;
53391;SDS011;41667;51.922;8.850;2022-09-17T07:07:29;10.55;;;2.15;;
53391;SDS011;41667;51.922;8.850;2022-09-17T07:09:54;7.72;;;1.58;;
53391;SDS011;41667;51.922;8.850;2022-09-17T07:12:20;7.83;;;1.47;;
53391;SDS011;41667;51.922;8.850;2022-09-17T07:14:45;11.38;;;1.88;;
53391;SDS011;41667;51.922;8.850;2022-09-17T07:17:11;7.60;;;2.60;;
53391;SDS011;41667;51.922;8.850;2022-09-17T07:19:36;4.40;;;1.80;;
53391;SDS011;41667;51.922;8.850;2022-09-17T07:22:02;6.43;;;1.27;;
53391;SDS011;41667;51.922;8.850;2022-09-17T07:24:27;3.80;;;1.83;;
53391;SDS011;41667;51.922;8.850;2022-09-17T07:26:52;6.70;;;1.47;;
53391;SDS011;41667;51.922;8.850;2022-09-17T07:29:17;7.88;;;2.13;;
53391;SDS011;41667;51.922;8.850;2022-09-17T07:31:43;5.55;;;2.50;;
53391;SDS011;41667;51.922;8.850;2022-09-17T07:34:08;6.43;;;2.08;;
53391;SDS011;41667;51.922;8.850;2022-09-17T07:36:34;5.65;;;2.03;;
53391;SDS011;41667;51.922;8.850;2022-09-17T07:38:59;12.10;;;3.10;;
53391;SDS011;41667;51.922;8.850;2022-09-17T07:41:24;5.47;;;2.08;;
53391;SDS011;41667;51.922;8.850;2022-09-17T07:43:51;4.00;;;1.75;;
53391;SDS011;41667;51.922;8.850;2022-09-17T07:46:17;10.13;;;1.92;;
53391;SDS011;41667;51.922;8.850;2022-09-17T07:48:42;4.38;;;1.23;;
53391;SDS011;41667;51.922;8.850;2022-09-17T07:51:12;4.85;;;1.10;;
53391;SDS011;41667;51.922;8.850;2022-09-17T07:53:38;10.07;;;2.28;;
53391;SDS011;41667;51.922;8.850;2022-09-17T07:56:03;7.47;;;1.40;;
53391;SDS011;41667;51.922;8.850;2022-09-17T07:58:29;4.37;;;1.50;;
53391;SDS011;41667;51.922;8.850;2022-09-17T08:00:58;4.28;;;1.13;;
53391;SDS011;41667;51.922;8.850;2022-09-17T08:03:24;6.30;;;2.13;;
53391;SDS011;41667;51.922;8.850;2022-09-17T08:05:49;5.97;;;1.10;;
53391;SDS011;41667;51.922;8.850;2022-09-17T08:08:14;5.85;;;1.60;;
53391;SDS011;41667;51.922;8.850;2022-09-17T08:10:39;3.38;;;1.05;;
53391;SDS011;41667;51.922;8.850;2022-09-17T08:13:04;5.13;;;1.30;;
53391;SDS011;41667;51.922;8.850;2022-09-17T08:15:29;3.00;;;1.25;;
53391;SDS011;41667;51.922;8.850;2022-09-17T08:17:54;10.10;;;2.58;;
53391;SDS011;41667;51.922;8.850;2022-09-17T08:20:20;6.97;;;2.23;;
53391;SDS011;41667;51.922;8.850;2022-09-17T08:22:45;7.05;;;2.05;;
53391;SDS011;41667;51.922;8.850;2022-09-17T08:25:10;3.35;;;1.23;;
53391;SDS011;41667;51.922;8.850;2022-09-17T08:27:36;6.77;;;1.23;;
53391;SDS011;41667;51.922;8.850;2022-09-17T08:30:07;8.60;;;1.40;;
53391;SDS011;41667;51.922;8.850;2022-09-17T08:32:32;14.02;;;3.65;;
53391;SDS011;41667;51.922;8.850;2022-09-17T08:34:57;14.77;;;2.53;;
53391;SDS011;41667;51.922;8.850;2022-09-17T08:37:22;8.73;;;1.40;;
53391;SDS011;41667;51.922;8.850;2022-09-17T08:39:48;8.20;;;1.43;;
53391;SDS011;41667;51.922;8.850;2022-09-17T08:44:55;4.38;;;1.45;;
53391;SDS011;41667;51.922;8.850;2022-09-17T08:47:33;5.78;;;1.52;;
53391;SDS011;41667;51.922;8.850;2022-09-17T08:50:01;8.10;;;1.30;;
53391;SDS011;41667;51.922;8.850;2022-09-17T08:55:16;12.33;;;1.53;;
53391;SDS011;41667;51.922;8.850;2022-09-17T08:57:49;8.07;;;1.52;;
53391;SDS011;41667;51.922;8.850;2022-09-17T09:00:18;2.63;;;1.23;;
53391;SDS011;41667;51.922;8.850;2022-09-17T09:07:35;12.02;;;1.92;;
53391;SDS011;41667;51.922;8.850;2022-09-17T09:12:29;7.25;;;1.52;;
53391;SDS011;41667;51.922;8.850;2022-09-17T09:15:02;9.82;;;1.98;;
53391;SDS011;41667;51.922;8.850;2022-09-17T09:17:40;9.80;;;1.40;;
53391;SDS011;41667;51.922;8.850;2022-09-17T09:20:17;8.00;;;1.40;;
53391;SDS011;41667;51.922;8.850;2022-09-17T09:27:52;7.70;;;1.30;;
53391;SDS011;41667;51.922;8.850;2022-09-17T09:30:20;6.28;;;1.40;;
53391;SDS011;41667;51.922;8.850;2022-09-17T09:32:50;4.55;;;1.40;;
53391;SDS011;41667;51.922;8.850;2022-09-17T09:35:30;5.40;;;1.13;;
53391;SDS011;41667;51.922;8.850;2022-09-17T09:37:58;10.70;;;1.77;;
53391;SDS011;41667;51.922;8.850;2022-09-17T09:40:29;4.70;;;1.05;;
53391;SDS011;41667;51.922;8.850;2022-09-17T09:42:56;9.45;;;1.35;;
53391;SDS011;41667;51.922;8.850;2022-09-17T09:45:32;5.93;;;1.17;;
53391;SDS011;41667;51.922;8.850;2022-09-17T09:50:40;4.75;;;1.20;;
53391;SDS011;41667;51.922;8.850;2022-09-17T09:55:40;6.20;;;1.10;;
53391;SDS011;41667;51.922;8.850;2022-09-17T09:58:11;4.78;;;0.93;;
53391;SDS011;41667;51.922;8.850;2022-09-17T10:00:41;5.32;;;0.98;;
53391;SDS011;41667;51.922;8.850;2022-09-17T10:03:12;3.67;;;1.10;;
53391;SDS011;41667;51.922;8.850;2022-09-17T10:05:39;1.35;;;0.45;;
53391;SDS011;41667;51.922;8.850;2022-09-17T10:08:15;2.03;;;0.95;;
53391;SDS011;41667;51.922;8.850;2022-09-17T10:11:00;3.92;;;0.90;;
53391;SDS011;41667;51.922;8.850;2022-09-17T10:13:26;4.18;;;1.23;;
53391;SDS011;41667;51.922;8.850;2022-09-17T10:15:52;5.07;;;0.73;;
53391;SDS011;41667;51.922;8.850;2022-09-17T10:18:18;0.45;;;0.45;;
53391;SDS011;41667;51.922;8.850;2022-09-17T10:20:54;4.25;;;1.13;;
53391;SDS011;41667;51.922;8.850;2022-09-17T10:23:19;1.17;;;0.57;;
53391;SDS011;41667;51.922;8.850;2022-09-17T10:25:45;6.00;;;1.15;;
53391;SDS011;41667;51.922;8.850;2022-09-17T10:28:20;3.60;;;1.05;;
53391;SDS011;41667;51.922;8.850;2022-09-17T10:30:54;2.92;;;0.75;;
53391;SDS011;41667;51.922;8.850;2022-09-17T10:33:20;2.83;;;0.80;;
53391;SDS011;41667;51.922;8.850;2022-09-17T10:35:53;2.53;;;0.77;;
53391;SDS011;41667;51.922;8.850;2022-09-17T10:38:29;3.28;;;0.90;;
53391;SDS011;41667;51.922;8.850;2022-09-17T10:41:08;2.97;;;1.15;;
53391;SDS011;41667;51.922;8.850;2022-09-17T10:43:33;8.55;;;0.93;;
53391;SDS011;41667;51.922;8.850;2022-09-17T10:45:59;3.27;;;0.73;;
53391;SDS011;41667;51.922;8.850;2022-09-17T10:48:25;6.57;;;1.13;;
53391;SDS011;41667;51.922;8.850;2022-09-17T10:50:53;4.93;;;1.25;;
53391;SDS011;41667;51.922;8.850;2022-09-17T10:53:19;7.10;;;2.10;;
53391;SDS011;41667;51.922;8.850;2022-09-17T10:55:53;8.15;;;1.98;;
53391;SDS011;41667;51.922;8.850;2022-09-17T10:58:29;0.93;;;0.60;;
53391;SDS011;41667;51.922;8.850;2022-09-17T11:01:01;1.63;;;0.40;;
53391;SDS011;41667;51.922;8.850;2022-09-17T11:06:04;4.85;;;0.77;;
53391;SDS011;41667;51.922;8.850;2022-09-17T11:08:47;2.33;;;0.77;;
53391;SDS011;41667;51.922;8.850;2022-09-17T11:11:28;5.88;;;2.10;;
53391;SDS011;41667;51.922;8.850;2022-09-17T11:16:55;3.88;;;0.70;;
53391;SDS011;41667;51.922;8.850;2022-09-17T11:26:53;4.55;;;0.73;;
53391;SDS011;41667;51.922;8.850;2022-09-17T11:34:34;5.38;;;0.75;;
53391;SDS011;41667;51.922;8.850;2022-09-17T11:39:35;2.92;;;0.70;;
53391;SDS011;41667;51.922;8.850;2022-09-17T11:42:04;2.50;;;0.70;;
53391;SDS011;41667;51.922;8.850;2022-09-17T11:44:34;1.50;;;0.60;;
53391;SDS011;41667;51.922;8.850;2022-09-17T11:49:38;3.60;;;0.98;;
53391;SDS011;41667;51.922;8.850;2022-09-17T11:52:06;1.08;;;0.60;;
53391;SDS011;41667;51.922;8.850;2022-09-17T11:54:43;1.58;;;0.85;;
53391;SDS011;41667;51.922;8.850;2022-09-17T11:57:21;2.38;;;0.75;;
53391;SDS011;41667;51.922;8.850;2022-09-17T12:02:25;3.17;;;0.77;;
53391;SDS011;41667;51.922;8.850;2022-09-17T12:05:00;4.05;;;0.85;;
53391;SDS011;41667;51.922;8.850;2022-09-17T12:07:40;3.40;;;0.52;;
53391;SDS011;41667;51.922;8.850;2022-09-17T12:12:32;1.08;;;0.70;;
53391;SDS011;41667;51.922;8.850;2022-09-17T12:15:46;1.27;;;0.60;;
53391;SDS011;41667;51.922;8.850;2022-09-17T12:20:27;2.95;;;0.80;;
53391;SDS011;41667;51.922;8.850;2022-09-17T12:22:54;3.95;;;1.45;;
53391;SDS011;41667;51.922;8.850;2022-09-17T12:25:21;3.13;;;0.60;;
53391;SDS011;41667;51.922;8.850;2022-09-17T12:27:51;3.58;;;1.48;;
53391;SDS011;41667;51.922;8.850;2022-09-17T12:30:18;0.65;;;0.52;;
53391;SDS011;41667;51.922;8.850;2022-09-17T12:40:58;1.90;;;0.60;;
53391;SDS011;41667;51.922;8.850;2022-09-17T12:43:35;2.25;;;0.73;;
53391;SDS011;41667;51.922;8.850;2022-09-17T12:51:13;2.20;;;0.40;;
53391;SDS011;41667;51.922;8.850;2022-09-17T12:56:15;0.63;;;0.60;;
53391;SDS011;41667;51.922;8.850;2022-09-17T13:01:27;4.63;;;0.70;;
53391;SDS011;41667;51.922;8.850;2022-09-17T13:03:57;1.48;;;0.63;;
53391;SDS011;41667;51.922;8.850;2022-09-17T13:06:29;2.00;;;0.77;;
53391;SDS011;41667;51.922;8.850;2022-09-17T13:09:03;1.70;;;0.98;;
53391;SDS011;41667;51.922;8.850;2022-09-17T13:16:55;1.90;;;0.73;;
53391;SDS011;41667;51.922;8.850;2022-09-17T13:21:53;3.80;;;0.70;;
53391;SDS011;41667;51.922;8.850;2022-09-17T13:24:24;2.28;;;0.57;;
53391;SDS011;41667;51.922;8.850;2022-09-17T13:26:51;1.20;;;0.30;;
53391;SDS011;41667;51.922;8.850;2022-09-17T13:32:04;1.83;;;0.70;;
53391;SDS011;41667;51.922;8.850;2022-09-17T13:34:30;1.17;;;0.43;;
53391;SDS011;41667;51.922;8.850;2022-09-17T13:36:56;1.67;;;0.75;;
53391;SDS011;41667;51.922;8.850;2022-09-17T13:44:46;2.55;;;0.40;;
53391;SDS011;41667;51.922;8.850;2022-09-17T13:47:20;0.77;;;0.45;;
53391;SDS011;41667;51.922;8.850;2022-09-17T13:49:47;1.27;;;0.60;;
53391;SDS011;41667;51.922;8.850;2022-09-17T13:52:13;2.35;;;0.70;;
53391;SDS011;41667;51.922;8.850;2022-09-17T13:54:51;6.03;;;0.50;;
53391;SDS011;41667;51.922;8.850;2022-09-17T13:57:16;1.13;;;0.50;;
53391;SDS011;41667;51.922;8.850;2022-09-17T13:59:50;3.08;;;0.85;;
53391;SDS011;41667;51.922;8.850;2022-09-17T14:09:56;1.95;;;0.30;;
53391;SDS011;41667;51.922;8.850;2022-09-17T14:17:56;2.65;;;1.15;;
53391;SDS011;41667;51.922;8.850;2022-09-17T14:20:22;1.40;;;0.50;;
53391;SDS011;41667;51.922;8.850;2022-09-17T14:22:55;1.67;;;0.57;;
53391;SDS011;41667;51.922;8.850;2022-09-17T14:25:21;2.00;;;0.68;;
53391;SDS011;41667;51.922;8.850;2022-09-17T14:27:56;1.25;;;0.68;;
53391;SDS011;41667;51.922;8.850;2022-09-17T14:32:50;0.73;;;0.40;;
53391;SDS011;41667;51.922;8.850;2022-09-17T14:37:45;3.75;;;0.50;;
53391;SDS011;41667;51.922;8.850;2022-09-17T14:40:12;1.38;;;0.50;;
53391;SDS011;41667;51.922;8.850;2022-09-17T14:42:40;3.22;;;0.70;;
53391;SDS011;41667;51.922;8.850;2022-09-17T14:45:07;3.95;;;0.50;;
53391;SDS011;41667;51.922;8.850;2022-09-17T14:47:37;2.55;;;0.70;;
53391;SDS011;41667;51.922;8.850;2022-09-17T14:50:24;5.93;;;0.85;;
53391;SDS011;41667;51.922;8.850;2022-09-17T14:52:53;5.20;;;0.82;;
53391;SDS011;41667;51.922;8.850;2022-09-17T14:55:19;3.42;;;0.88;;
53391;SDS011;41667;51.922;8.850;2022-09-17T14:57:49;0.75;;;0.50;;
53391;SDS011;41667;51.922;8.850;2022-09-17T15:00:16;2.90;;;0.60;;
53391;SDS011;41667;51.922;8.850;2022-09-17T15:02:42;3.35;;;0.88;;
53391;SDS011;41667;51.922;8.850;2022-09-17T15:05:18;1.92;;;0.60;;
53391;SDS011;41667;51.922;8.850;2022-09-17T15:07:44;3.63;;;0.77;;
53391;SDS011;41667;51.922;8.850;2022-09-17T15:10:14;4.30;;;0.88;;
53391;SDS011;41667;51.922;8.850;2022-09-17T15:12:41;4.65;;;0.70;;
53391;SDS011;41667;51.922;8.850;2022-09-17T15:15:09;2.45;;;0.55;;
53391;SDS011;41667;51.922;8.850;2022-09-17T15:17:38;1.75;;;1.05;;
53391;SDS011;41667;51.922;8.850;2022-09-17T15:20:05;1.98;;;0.98;;
53391;SDS011;41667;51.922;8.850;2022-09-17T15:22:33;4.50;;;1.27;;
53391;SDS011;41667;51.922;8.850;2022-09-17T15:25:15;3.05;;;1.02;;
53391;SDS011;41667;51.922;8.850;2022-09-17T15:27:42;5.03;;;1.10;;
53391;SDS011;41667;51.922;8.850;2022-09-17T15:30:10;3.88;;;0.63;;
53391;SDS011;41667;51.922;8.850;2022-09-17T15:32:37;0.52;;;0.52;;
53391;SDS011;41667;51.922;8.850;2022-09-17T15:37:43;2.03;;;0.63;;
53391;SDS011;41667;51.922;8.850;2022-09-17T15:40:14;12.52;;;1.70;;
53391;SDS011;41667;51.922;8.850;2022-09-17T15:42:39;5.65;;;1.00;;
53391;SDS011;41667;51.922;8.850;2022-09-17T15:45:19;3.47;;;1.08;;
53391;SDS011;41667;51.922;8.850;2022-09-17T15:50:14;4.55;;;0.73;;
53391;SDS011;41667;51.922;8.850;2022-09-17T15:52:40;8.18;;;0.85;;
53391;SDS011;41667;51.922;8.850;2022-09-17T15:55:25;1.27;;;0.70;;
53391;SDS011;41667;51.922;8.850;2022-09-17T15:57:53;2.90;;;0.80;;
53391;SDS011;41667;51.922;8.850;2022-09-17T16:00:18;5.87;;;0.90;;
53391;SDS011;41667;51.922;8.850;2022-09-17T16:02:44;5.80;;;1.50;;
53391;SDS011;41667;51.922;8.850;2022-09-17T16:07:37;7.35;;;1.73;;
53391;SDS011;41667;51.922;8.850;2022-09-17T16:10:03;6.03;;;1.20;;
53391;SDS011;41667;51.922;8.850;2022-09-17T16:12:28;5.75;;;1.13;;
53391;SDS011;41667;51.922;8.850;2022-09-17T16:14:54;2.80;;;1.30;;
53391;SDS011;41667;51.922;8.850;2022-09-17T16:17:21;6.30;;;1.42;;
53391;SDS011;41667;51.922;8.850;2022-09-17T16:19:46;7.45;;;1.40;;
53391;SDS011;41667;51.922;8.850;2022-09-17T16:22:11;2.05;;;0.73;;
53391;SDS011;41667;51.922;8.850;2022-09-17T16:24:37;2.58;;;1.23;;
53391;SDS011;41667;51.922;8.850;2022-09-17T16:27:02;3.90;;;0.67;;
53391;SDS011;41667;51.922;8.850;2022-09-17T16:29:28;0.85;;;0.50;;
53391;SDS011;41667;51.922;8.850;2022-09-17T16:31:53;3.80;;;1.33;;
53391;SDS011;41667;51.922;8.850;2022-09-17T16:34:18;4.80;;;1.60;;
53391;SDS011;41667;51.922;8.850;2022-09-17T16:36:43;6.10;;;1.17;;
53391;SDS011;41667;51.922;8.850;2022-09-17T16:39:08;6.38;;;1.35;;
53391;SDS011;41667;51.922;8.850;2022-09-17T16:41:33;3.40;;;0.82;;
53391;SDS011;41667;51.922;8.850;2022-09-17T16:43:59;5.25;;;1.10;;
53391;SDS011;41667;51.922;8.850;2022-09-17T16:46:24;5.45;;;1.40;;
53391;SDS011;41667;51.922;8.850;2022-09-17T16:48:49;5.10;;;1.10;;
53391;SDS011;41667;51.922;8.850;2022-09-17T16:51:15;4.93;;;1.00;;
53391;SDS011;41667;51.922;8.850;2022-09-17T16:53:40;5.68;;;1.40;;
53391;SDS011;41667;51.922;8.850;2022-09-17T16:56:06;4.97;;;0.95;;
53391;SDS011;41667;51.922;8.850;2022-09-17T16:58:31;2.90;;;0.80;;
53391;SDS011;41667;51.922;8.850;2022-09-17T17:00:56;5.43;;;1.37;;
53391;SDS011;41667;51.922;8.850;2022-09-17T17:03:21;4.88;;;0.90;;
53391;SDS011;41667;51.922;8.850;2022-09-17T17:05:46;1.55;;;0.77;;
53391;SDS011;41667;51.922;8.850;2022-09-17T17:08:11;6.65;;;1.17;;
53391;SDS011;41667;51.922;8.850;2022-09-17T17:10:38;6.68;;;1.50;;
53391;SDS011;41667;51.922;8.850;2022-09-17T17:13:03;5.43;;;1.37;;
53391;SDS011;41667;51.922;8.850;2022-09-17T17:15:28;3.25;;;0.80;;
53391;SDS011;41667;51.922;8.850;2022-09-17T17:17:54;1.83;;;0.80;;
53391;SDS011;41667;51.922;8.850;2022-09-17T17:20:19;0.80;;;0.80;;